METAR de aeropuertos de Murcia y cercanos

 

LEAL - Alicante
Actualización: 15/11/2018 16:00
Few Clouds
Few Clouds
 Viento del ENE
Viento: ENE 19 km/h
Temperatura: 19°C
Rocío: 17°C
Humedad: 88%
Barómetro: 1016 hPa
Nubosidad: Few Clouds
Visibilidad: 10 km
Cloud details: Few Clouds 213 m
Few Clouds 610 m
2018/11/15 15:00 LEAL 151500Z 07010KT 9999 FEW007 FEW020TCU 19/17 Q1016 NOSIG
LEAB - Albacete
Actualización: 15/11/2018 16:00
Mostly Cloudy
Mostly Cloudy
 Viento del E
Viento: E 17 km/h
Temperatura: 15°C
Rocío: 11°C
Humedad: 77%
Barómetro: 1017 hPa
Nubosidad: Mostly Cloudy
Visibilidad: 10 km
Cloud details: Mostly Cloudy 792 m
2018/11/15 15:00 LEAB 151500Z 09009KT 060V130 9999 BKN026 15/11 Q1017 NOSIG
LEAM - Almería
Actualización: 15/11/2018 16:00
Mostly Cloudy
Mostly Cloudy
 Viento del E
Viento: E 24 km/h
Temperatura: 20°C
Rocío: 13°C
Humedad: 64%
Barómetro: 1015 hPa
Nubosidad: Mostly Cloudy
Visibilidad: 10 km
Cloud details: Few Clouds 1219 m
Mostly Cloudy 1829 m
2018/11/15 15:00 LEAM 151500Z 08013KT 9999 FEW040 BKN060 20/13 Q1015
 
LERI - Murcia/Alcantarilla
Actualización: 15/11/2018 16:00
Few Clouds
Few Clouds
 Viento del SO
Viento: SO 6 km/h
Temperatura: 18°C
Rocío: 15°C
Humedad: 83%
Barómetro: 1016 hPa
Nubosidad: Few Clouds
Visibilidad: 10 km
Cloud details: Few Clouds 610 m
2018/11/15 15:00 LERI 151500Z 22003KT 9999 FEW020 18/15 Q1016 NOSIG
LELC - Murcia/San Javier
Actualización: 15/11/2018 16:00
Partly Cloudy
Partly Cloudy
 Viento del ENE
Viento: ENE 7 km/h
Temperatura: 19°C
Rocío: 15°C
Humedad: 78%
Barómetro: 1016 hPa
Nubosidad: Partly Cloudy
Visibilidad: 10 km
Cloud details: Partly Cloudy 1524 m
2018/11/15 15:00 LELC 151500Z 06004KT 020V090 9999 SCT050 19/15 Q1016 NOSIG

La estación de MeteoMurcia.com, publica sus datos en los siguientes proyectos:

Meteoclimatic www.awekas.at

W3Counter
Web Analytics